Time,TemperatureF,DewpointF,PressureIn,WindDirection,WindDirectionDegrees,WindSpeedMPH,WindSpeedGustMPH,Humidity,HourlyPrecipIn,Conditions,Clouds,dailyrainin,SoftwareType,DateUTC
2013-03-06 00:01:00,60.0,43.0,29.94,South,180,1.0,2.0,53,0.00,,,0.00,,2013-03-06 07:01:00,
2013-03-06 00:11:00,60.0,43.0,29.94,South,180,1.0,2.0,53,0.00,,,0.00,,2013-03-06 07:11:00,
2013-03-06 00:21:00,60.0,43.0,29.94,South,180,0.0,0.0,54,0.00,,,0.00,,2013-03-06 07:21:00,
2013-03-06 00:31:00,59.0,43.0,29.94,South,180,0.0,0.0,55,0.00,,,0.00,,2013-03-06 07:31:00,
2013-03-06 00:41:00,59.0,43.0,29.94,South,180,0.0,0.0,55,0.00,,,0.00,,2013-03-06 07:41:00,
2013-03-06 00:52:00,59.0,43.0,29.95,South,180,0.0,0.0,55,0.00,,,0.00,,2013-03-06 07:52:00,
2013-03-06 01:01:00,59.0,43.0,29.95,South,180,0.0,0.0,55,0.00,,,0.00,,2013-03-06 08:01:00,
2013-03-06 01:11:00,59.0,43.0,29.95,South,180,0.0,0.0,55,0.00,,,0.00,,2013-03-06 08:11:00,
2013-03-06 01:21:00,59.0,42.0,29.94,South,180,0.0,0.0,54,0.00,,,0.00,,2013-03-06 08:21:00,
2013-03-06 01:31:00,58.0,41.0,29.95,South,180,0.0,0.0,54,0.00,,,0.00,,2013-03-06 08:31:00,
2013-03-06 01:41:00,58.0,41.0,29.95,South,180,0.0,0.0,54,0.00,,,0.00,,2013-03-06 08:41:00,
2013-03-06 01:52:00,58.0,41.0,29.94,South,180,0.0,0.0,54,0.00,,,0.00,,2013-03-06 08:52:00,
2013-03-06 02:01:00,58.0,42.0,29.94,South,180,0.0,0.0,56,0.00,,,0.00,,2013-03-06 09:01:00,
2013-03-06 02:12:00,58.0,42.0,29.94,South,180,0.0,0.0,56,0.00,,,0.00,,2013-03-06 09:12:00,
2013-03-06 02:21:00,58.0,43.0,29.94,South,180,0.0,0.0,57,0.00,,,0.00,,2013-03-06 09:21:00,
2013-03-06 02:31:00,58.0,43.0,29.93,South,180,0.0,0.0,57,0.00,,,0.00,,2013-03-06 09:31:00,
2013-03-06 02:41:00,58.0,43.0,29.93,South,180,0.0,0.0,57,0.00,,,0.00,,2013-03-06 09:41:00,
2013-03-06 02:52:00,58.0,43.0,29.93,South,180,0.0,0.0,58,0.00,,,0.00,,2013-03-06 09:52:00,
2013-03-06 03:01:00,58.0,43.0,29.93,South,180,0.0,0.0,58,0.00,,,0.00,,2013-03-06 10:01:00,
2013-03-06 03:11:00,58.0,43.0,29.93,South,180,0.0,0.0,58,0.00,,,0.00,,2013-03-06 10:11:00,
2013-03-06 03:21:00,57.0,42.0,29.93,South,180,0.0,0.0,58,0.00,,,0.00,,2013-03-06 10:21:00,
2013-03-06 03:31:00,57.0,43.0,29.92,South,180,0.0,0.0,59,0.00,,,0.00,,2013-03-06 10:31:00,
2013-03-06 03:41:00,57.0,43.0,29.92,South,180,0.0,0.0,59,0.00,,,0.00,,2013-03-06 10:41:00,
2013-03-06 03:52:00,56.0,43.0,29.93,South,180,2.0,5.0,61,0.00,,,0.00,,2013-03-06 10:52:00,
2013-03-06 04:01:00,56.0,44.0,29.93,South,180,0.0,0.0,63,0.00,,,0.00,,2013-03-06 11:01:00,
2013-03-06 04:11:00,56.0,44.0,29.93,South,180,0.0,0.0,63,0.00,,,0.00,,2013-03-06 11:11:00,
2013-03-06 04:22:00,56.0,44.0,29.94,South,180,1.0,2.0,63,0.00,,,0.00,,2013-03-06 11:22:00,
2013-03-06 04:31:00,55.0,43.0,29.95,South,180,2.0,3.0,63,0.00,,,0.00,,2013-03-06 11:31:00,
2013-03-06 04:42:00,55.0,43.0,29.95,South,180,2.0,3.0,63,0.00,,,0.00,,2013-03-06 11:42:00,
2013-03-06 04:52:00,55.0,43.0,29.95,South,180,1.0,3.0,63,0.00,,,0.00,,2013-03-06 11:52:00,
2013-03-06 05:01:00,55.0,42.0,29.95,South,180,0.0,2.0,61,0.00,,,0.00,,2013-03-06 12:01:00,
2013-03-06 05:11:00,55.0,42.0,29.95,South,180,0.0,2.0,61,0.00,,,0.00,,2013-03-06 12:11:00,
2013-03-06 05:21:00,55.0,41.0,29.96,South,180,2.0,6.0,60,0.00,,,0.00,,2013-03-06 12:21:00,
2013-03-06 05:32:00,56.0,41.0,29.96,SSW,203,2.0,3.0,56,0.00,,,0.00,,2013-03-06 12:32:00,
2013-03-06 05:42:00,56.0,41.0,29.96,SSW,203,2.0,3.0,56,0.00,,,0.00,,2013-03-06 12:42:00,
2013-03-06 05:52:00,56.0,39.0,29.96,SSW,203,2.0,5.0,52,0.00,,,0.00,,2013-03-06 12:52:00,
2013-03-06 06:01:00,57.0,39.0,29.96,SSW,203,1.0,3.0,50,0.00,,,0.00,,2013-03-06 13:01:00,
2013-03-06 06:11:00,57.0,39.0,29.96,SSW,203,1.0,3.0,50,0.00,,,0.00,,2013-03-06 13:11:00,
2013-03-06 06:21:00,56.0,38.0,29.97,SSW,203,2.0,3.0,50,0.00,,,0.00,,2013-03-06 13:21:00,
2013-03-06 06:31:00,56.0,39.0,29.97,SSW,203,1.0,3.0,52,0.00,,,0.00,,2013-03-06 13:31:00,
2013-03-06 06:41:00,56.0,39.0,29.97,SSW,203,1.0,3.0,52,0.00,,,0.00,,2013-03-06 13:41:00,
2013-03-06 06:52:00,56.0,39.0,29.98,SSW,203,0.0,1.0,52,0.00,,,0.00,,2013-03-06 13:52:00,
2013-03-06 07:01:00,56.0,39.0,29.98,SW,225,0.0,1.0,53,0.00,,,0.00,,2013-03-06 14:01:00,
2013-03-06 07:11:00,56.0,39.0,29.98,SW,225,0.0,1.0,53,0.00,,,0.00,,2013-03-06 14:11:00,
2013-03-06 07:21:00,56.0,40.0,29.99,SW,225,0.0,1.0,54,0.00,,,0.00,,2013-03-06 14:21:00,
2013-03-06 07:31:00,56.0,40.0,29.99,SW,225,0.0,0.0,54,0.00,,,0.00,,2013-03-06 14:31:00,
2013-03-06 07:41:00,56.0,40.0,29.98,SW,225,2.0,3.0,54,0.00,,,0.00,,2013-03-06 14:41:00,
2013-03-06 07:52:00,56.0,40.0,29.98,SW,225,2.0,3.0,54,0.00,,,0.00,,2013-03-06 14:52:00,
2013-03-06 08:01:00,56.0,40.0,29.98,SW,225,0.0,1.0,55,0.00,,,0.00,,2013-03-06 15:01:00,
2013-03-06 08:11:00,56.0,40.0,29.98,SW,225,0.0,1.0,55,0.00,,,0.00,,2013-03-06 15:11:00,
2013-03-06 08:21:00,58.0,42.0,29.99,SW,225,1.0,2.0,55,0.00,,,0.00,,2013-03-06 15:21:00,
2013-03-06 08:32:00,60.0,43.0,30.00,SW,225,0.0,1.0,54,0.00,,,0.00,,2013-03-06 15:32:00,
2013-03-06 08:41:00,60.0,43.0,30.00,SW,225,0.0,1.0,54,0.00,,,0.00,,2013-03-06 15:41:00,
2013-03-06 08:52:00,61.0,42.0,30.01,SW,225,1.0,3.0,50,0.00,,,0.00,,2013-03-06 15:52:00,
2013-03-06 09:01:00,63.0,42.0,30.01,SW,225,2.0,3.0,46,0.00,,,0.00,,2013-03-06 16:01:00,
2013-03-06 09:11:00,63.0,42.0,30.01,SW,225,2.0,3.0,46,0.00,,,0.00,,2013-03-06 16:11:00,
2013-03-06 09:21:00,65.0,42.0,30.01,West,270,2.0,5.0,43,0.00,,,0.00,,2013-03-06 16:21:00,
2013-03-06 09:32:00,67.0,41.0,30.01,West,270,6.0,9.0,39,0.00,,,0.00,,2013-03-06 16:32:00,
2013-03-06 09:41:00,67.0,41.0,30.01,West,270,6.0,9.0,39,0.00,,,0.00,,2013-03-06 16:41:00,
2013-03-06 09:52:00,68.0,42.0,30.01,West,270,6.0,9.0,39,0.00,,,0.00,,2013-03-06 16:52:00,
2013-03-06 10:01:00,69.0,42.0,30.01,West,270,3.0,8.0,38,0.00,,,0.00,,2013-03-06 17:01:00,
2013-03-06 10:11:00,69.0,42.0,30.01,West,270,3.0,8.0,38,0.00,,,0.00,,2013-03-06 17:11:00,
2013-03-06 10:21:00,69.0,42.0,30.01,West,270,3.0,5.0,37,0.00,,,0.00,,2013-03-06 17:21:00,
2013-03-06 10:31:00,71.0,41.0,30.00,West,270,6.0,8.0,34,0.00,,,0.00,,2013-03-06 17:31:00,
2013-03-06 10:41:00,71.0,41.0,30.00,West,270,6.0,8.0,34,0.00,,,0.00,,2013-03-06 17:41:00,
2013-03-06 10:52:00,72.0,41.0,30.00,West,270,2.0,5.0,33,0.00,,,0.00,,2013-03-06 17:52:00,
2013-03-06 11:01:00,73.0,42.0,30.00,West,270,3.0,5.0,33,0.00,,,0.00,,2013-03-06 18:01:00,
2013-03-06 11:28:00,73.0,41.0,29.99,West,270,2.0,5.0,32,0.00,,,0.00,,2013-03-06 18:28:00,
2013-03-06 11:41:00,74.0,41.0,30.00,WNW,293,5.0,6.0,31,0.00,,,0.00,,2013-03-06 18:41:00,
2013-03-06 11:52:00,75.0,41.0,30.00,West,270,5.0,8.0,29,0.00,,,0.00,,2013-03-06 18:52:00,
2013-03-06 12:01:00,75.0,40.0,29.99,SW,225,3.0,3.0,28,0.00,,,0.00,,2013-03-06 19:01:00,
2013-03-06 12:11:00,75.0,40.0,29.99,SW,225,3.0,3.0,28,0.00,,,0.00,,2013-03-06 19:11:00,
2013-03-06 12:21:00,75.0,41.0,29.99,West,270,3.0,6.0,29,0.00,,,0.00,,2013-03-06 19:21:00,
2013-03-06 12:31:00,77.0,40.0,29.98,West,270,3.0,3.0,27,0.00,,,0.00,,2013-03-06 19:31:00,
2013-03-06 12:42:00,77.0,40.0,29.98,West,270,3.0,3.0,27,0.00,,,0.00,,2013-03-06 19:42:00,
2013-03-06 12:52:00,78.0,41.0,29.97,West,270,3.0,6.0,27,0.00,,,0.00,,2013-03-06 19:52:00,
2013-03-06 13:01:00,77.0,40.0,29.96,West,270,5.0,7.0,27,0.00,,,0.00,,2013-03-06 20:01:00,
2013-03-06 13:11:00,77.0,40.0,29.96,West,270,5.0,7.0,27,0.00,,,0.00,,2013-03-06 20:11:00,
2013-03-06 13:21:00,77.0,39.0,29.96,West,270,2.0,5.0,26,0.00,,,0.00,,2013-03-06 20:21:00,
2013-03-06 13:31:00,78.0,38.0,29.95,West,270,5.0,7.0,24,0.00,,,0.00,,2013-03-06 20:31:00,
2013-03-06 13:41:00,78.0,38.0,29.95,West,270,5.0,7.0,24,0.00,,,0.00,,2013-03-06 20:41:00,
2013-03-06 13:52:00,79.0,39.0,29.94,SW,225,6.0,8.0,24,0.00,,,0.00,,2013-03-06 20:52:00,
2013-03-06 14:01:00,79.0,39.0,29.93,West,270,2.0,3.0,24,0.00,,,0.00,,2013-03-06 21:01:00,
2013-03-06 14:11:00,79.0,39.0,29.93,West,270,2.0,3.0,24,0.00,,,0.00,,2013-03-06 21:11:00,
2013-03-06 14:21:00,80.0,39.0,29.92,West,270,5.0,7.0,23,0.00,,,0.00,,2013-03-06 21:21:00,
2013-03-06 14:31:00,81.0,39.0,29.91,SW,225,5.0,8.0,22,0.00,,,0.00,,2013-03-06 21:31:00,
2013-03-06 14:41:00,81.0,39.0,29.91,SW,225,5.0,8.0,22,0.00,,,0.00,,2013-03-06 21:41:00,
2013-03-06 14:52:00,79.0,38.0,29.91,WNW,293,5.0,7.0,23,0.00,,,0.00,,2013-03-06 21:52:00,
2013-03-06 15:01:00,80.0,38.0,29.91,NW,315,2.0,3.0,22,0.00,,,0.00,,2013-03-06 22:01:00,
2013-03-06 15:11:00,80.0,38.0,29.91,NW,315,2.0,3.0,22,0.00,,,0.00,,2013-03-06 22:11:00,
2013-03-06 15:21:00,80.0,37.0,29.90,WSW,248,6.0,8.0,21,0.00,,,0.00,,2013-03-06 22:21:00,
2013-03-06 15:31:00,79.0,36.0,29.89,SW,225,3.0,5.0,21,0.00,,,0.00,,2013-03-06 22:31:00,
2013-03-06 15:41:00,79.0,36.0,29.89,SW,225,3.0,5.0,21,0.00,,,0.00,,2013-03-06 22:41:00,
2013-03-06 15:52:00,79.0,36.0,29.89,SSW,203,3.0,6.0,21,0.00,,,0.00,,2013-03-06 22:52:00,
2013-03-06 16:01:00,79.0,36.0,29.88,SSW,203,2.0,3.0,21,0.00,,,0.00,,2013-03-06 23:01:00,
2013-03-06 16:11:00,79.0,36.0,29.88,SSW,203,2.0,3.0,21,0.00,,,0.00,,2013-03-06 23:11:00,
2013-03-06 16:21:00,79.0,33.0,29.88,SSW,203,1.0,3.0,19,0.00,,,0.00,,2013-03-06 23:21:00,
2013-03-06 16:31:00,78.0,34.0,29.87,South,180,3.0,7.0,20,0.00,,,0.00,,2013-03-06 23:31:00,
2013-03-06 16:41:00,79.0,33.0,29.86,WSW,248,1.0,2.0,19,0.00,,,0.00,,2013-03-06 23:41:00,
2013-03-06 16:52:00,79.0,33.0,29.86,WSW,248,1.0,2.0,19,0.00,,,0.00,,2013-03-06 23:52:00,
2013-03-06 17:01:00,79.0,34.0,29.86,WSW,248,2.0,3.0,20,0.00,,,0.00,,2013-03-07 00:01:00,
2013-03-06 17:11:00,79.0,34.0,29.86,WSW,248,2.0,3.0,20,0.00,,,0.00,,2013-03-07 00:11:00,
2013-03-06 17:21:00,79.0,36.0,29.86,WSW,248,2.0,3.0,21,0.00,,,0.00,,2013-03-07 00:21:00,
2013-03-06 17:31:00,78.0,35.0,29.86,SW,225,3.0,5.0,21,0.00,,,0.00,,2013-03-07 00:31:00,
2013-03-06 17:41:00,78.0,35.0,29.86,SW,225,3.0,5.0,21,0.00,,,0.00,,2013-03-07 00:41:00,
2013-03-06 17:52:00,77.0,36.0,29.85,SSW,203,2.0,3.0,23,0.00,,,0.00,,2013-03-07 00:52:00,
2013-03-06 18:01:00,76.0,37.0,29.86,SSW,203,2.0,3.0,24,0.00,,,0.00,,2013-03-07 01:01:00,
2013-03-06 18:11:00,76.0,37.0,29.86,SSW,203,2.0,3.0,24,0.00,,,0.00,,2013-03-07 01:11:00,
2013-03-06 18:21:00,76.0,38.0,29.85,SSW,203,3.0,5.0,25,0.00,,,0.00,,2013-03-07 01:21:00,
2013-03-06 18:31:00,75.0,39.0,29.85,SSW,203,5.0,6.0,27,0.00,,,0.00,,2013-03-07 01:31:00,
2013-03-06 18:52:00,74.0,38.0,29.85,SSW,203,1.0,3.0,27,0.00,,,0.00,,2013-03-07 01:52:00,
2013-03-06 19:01:00,73.0,38.0,29.85,SSW,203,2.0,3.0,28,0.00,,,0.00,,2013-03-07 02:01:00,
2013-03-06 19:11:00,73.0,38.0,29.85,SSW,203,2.0,3.0,28,0.00,,,0.00,,2013-03-07 02:11:00,
2013-03-06 19:21:00,71.0,38.0,29.86,SSW,203,1.0,2.0,30,0.00,,,0.00,,2013-03-07 02:21:00,
2013-03-06 19:31:00,70.0,38.0,29.86,SSW,203,0.0,1.0,31,0.00,,,0.00,,2013-03-07 02:31:00,
2013-03-06 19:41:00,70.0,38.0,29.86,SSW,203,0.0,1.0,31,0.00,,,0.00,,2013-03-07 02:41:00,
2013-03-06 19:52:00,70.0,38.0,29.86,SSW,203,0.0,1.0,31,0.00,,,0.00,,2013-03-07 02:52:00,
2013-03-06 20:01:00,69.0,39.0,29.86,SSW,203,0.0,0.0,33,0.00,,,0.00,,2013-03-07 03:01:00,
2013-03-06 20:11:00,68.0,39.0,29.86,SSW,203,1.0,2.0,34,0.00,,,0.00,,2013-03-07 03:11:00,
2013-03-06 20:21:00,68.0,39.0,29.86,SSW,203,1.0,2.0,34,0.00,,,0.00,,2013-03-07 03:21:00,
2013-03-06 20:31:00,66.0,38.0,29.87,SSW,203,1.0,2.0,36,0.00,,,0.00,,2013-03-07 03:31:00,
2013-03-06 20:41:00,66.0,38.0,29.87,SSW,203,1.0,2.0,36,0.00,,,0.00,,2013-03-07 03:41:00,
2013-03-06 20:52:00,66.0,38.0,29.87,SSW,203,1.0,2.0,36,0.00,,,0.00,,2013-03-07 03:52:00,
2013-03-06 21:01:00,65.0,38.0,29.87,SSW,203,2.0,3.0,37,0.00,,,0.00,,2013-03-07 04:01:00,
2013-03-06 21:11:00,65.0,38.0,29.87,SSW,203,2.0,3.0,37,0.00,,,0.00,,2013-03-07 04:11:00,
2013-03-06 21:21:00,64.0,39.0,29.88,SSW,203,0.0,2.0,39,0.00,,,0.00,,2013-03-07 04:21:00,
2013-03-06 21:31:00,64.0,38.0,29.89,SSW,203,1.0,2.0,38,0.00,,,0.00,,2013-03-07 04:31:00,
2013-03-06 21:41:00,64.0,38.0,29.89,SSW,203,1.0,2.0,38,0.00,,,0.00,,2013-03-07 04:41:00,
2013-03-06 21:52:00,64.0,39.0,29.89,SSW,203,1.0,3.0,40,0.00,,,0.00,,2013-03-07 04:52:00,
2013-03-06 22:01:00,64.0,39.0,29.88,SSW,203,1.0,3.0,40,0.00,,,0.00,,2013-03-07 05:01:00,
2013-03-06 22:12:00,64.0,39.0,29.88,SSW,203,1.0,3.0,40,0.00,,,0.00,,2013-03-07 05:12:00,
2013-03-06 22:22:00,64.0,39.0,29.89,SW,225,2.0,3.0,40,0.00,,,0.00,,2013-03-07 05:22:00,
2013-03-06 22:31:00,64.0,40.0,29.89,WSW,248,3.0,6.0,41,0.00,,,0.00,,2013-03-07 05:31:00,
2013-03-06 22:41:00,64.0,40.0,29.89,WSW,248,3.0,6.0,41,0.00,,,0.00,,2013-03-07 05:41:00,
2013-03-06 22:52:00,64.0,40.0,29.89,West,270,2.0,3.0,42,0.00,,,0.00,,2013-03-07 05:52:00,
2013-03-06 23:01:00,63.0,40.0,29.89,West,270,2.0,3.0,42,0.00,,,0.00,,2013-03-07 06:01:00,
2013-03-06 23:11:00,63.0,40.0,29.89,West,270,2.0,3.0,42,0.00,,,0.00,,2013-03-07 06:11:00,
2013-03-06 23:21:00,62.0,39.0,29.90,West,270,2.0,5.0,43,0.00,,,0.00,,2013-03-07 06:21:00,
2013-03-06 23:31:00,62.0,40.0,29.90,West,270,2.0,3.0,44,0.00,,,0.00,,2013-03-07 06:31:00,
2013-03-06 23:41:00,61.0,40.0,29.89,West,270,1.0,3.0,45,0.00,,,0.00,,2013-03-07 06:41:00,
2013-03-06 23:52:00,61.0,40.0,29.89,West,270,1.0,3.0,45,0.00,,,0.00,,2013-03-07 06:52:00,